Time;durP1;ratioP1;P1;durP2;ratioP2;P2;SDS_P1;SDS_P2;PMS_P1;PMS_P2;Temp;Humidity;BMP_temperature;BMP_pressure;BME280_temperature;BME280_humidity;BME280_pressure;Samples;Min_cycle;Max_cycle;Signal;HPM_P1;HPM_P2
2023/06/20 00:00:08;;;;;;;7.68;6.00;;;;;;;25.67;40.92;101060.34;5127738;28;20056;-64
2023/06/20 00:02:38;;;;;;;7.82;5.50;;;;;;;25.66;40.59;101054.03;5126364;28;20039;-65
2023/06/20 00:05:06;;;;;;;9.68;6.25;;;;;;;25.66;40.87;101061.47;5119079;28;20047;-65
2023/06/20 00:07:34;;;;;;;7.68;6.35;;;;;;;25.64;40.83;101053.50;5122831;28;20051;-65
2023/06/20 00:10:02;;;;;;;8.38;6.63;;;;;;;25.63;40.52;101060.94;5116518;28;20044;-64
2023/06/20 00:12:30;;;;;;;8.05;6.80;;;;;;;25.62;40.89;101058.50;5125161;28;20076;-65
2023/06/20 00:14:58;;;;;;;8.85;6.05;;;;;;;25.60;40.98;101058.81;5124410;28;20085;-64
2023/06/20 00:17:26;;;;;;;9.05;6.70;;;;;;;25.59;40.99;101057.19;5123260;28;20039;-65
2023/06/20 00:19:55;;;;;;;8.18;6.60;;;;;;;25.59;40.84;101051.69;5124919;28;20086;-65
2023/06/20 00:22:23;;;;;;;7.70;5.90;;;;;;;25.58;40.82;101049.25;5124326;28;20040;-65
2023/06/20 00:24:51;;;;;;;9.43;5.97;;;;;;;25.58;40.83;101046.50;5126543;28;20047;-65
2023/06/20 00:27:18;;;;;;;8.38;6.60;;;;;;;25.56;41.09;101051.53;5119535;28;20051;-63
2023/06/20 00:29:46;;;;;;;8.60;6.65;;;;;;;25.54;40.87;101051.84;5125704;28;20047;-64
2023/06/20 00:32:14;;;;;;;11.23;6.43;;;;;;;25.53;40.94;101044.72;5125895;28;20044;-65
2023/06/20 00:34:42;;;;;;;7.72;6.40;;;;;;;25.51;41.17;101046.97;5119136;28;20059;-65
2023/06/20 00:37:11;;;;;;;7.30;6.18;;;;;;;25.50;41.11;101045.34;5125122;28;20485;-64
2023/06/20 00:39:39;;;;;;;9.30;6.93;;;;;;;25.49;41.16;101043.72;5120222;28;20096;-63
2023/06/20 00:42:17;;;;;;;7.95;6.80;;;;;;;25.48;41.21;101041.28;5126205;28;20040;-67
2023/06/20 00:44:45;;;;;;;9.88;7.13;;;;;;;25.48;41.18;101038.53;5125050;28;20154;-65
2023/06/20 00:47:13;;;;;;;9.30;6.82;;;;;;;25.46;41.75;101038.03;5121009;28;20047;-65
2023/06/20 00:49:41;;;;;;;10.05;6.65;;;;;;;25.43;41.63;101033.97;5125419;28;20070;-64
2023/06/20 00:52:10;;;;;;;13.38;6.25;;;;;;;25.41;41.38;101032.66;5121311;28;20081;-66
2023/06/20 00:54:38;;;;;;;7.35;6.13;;;;;;;25.40;41.43;101042.88;5127023;28;20051;-65
2023/06/20 00:57:06;;;;;;;7.93;6.25;;;;;;;25.39;41.51;101033.00;5124045;28;20044;-64
2023/06/20 00:59:34;;;;;;;8.05;6.05;;;;;;;25.38;41.24;101034.13;5125123;28;20094;-66
2023/06/20 01:02:03;;;;;;;10.77;7.20;;;;;;;25.37;41.67;101029.75;5126117;28;20054;-64
2023/06/20 01:04:31;;;;;;;9.27;6.13;;;;;;;25.34;41.58;101037.81;5117623;28;20048;-65
2023/06/20 01:07:04;;;;;;;8.65;6.90;;;;;;;25.31;41.79;101031.00;5120814;28;20093;-66
2023/06/20 01:09:44;;;;;;;12.32;6.30;;;;;;;25.30;41.69;101034.88;5125140;28;20184;-64
2023/06/20 01:12:20;;;;;;;8.27;6.10;;;;;;;25.28;41.70;101029.69;5125713;28;20048;-66
2023/06/20 01:14:58;;;;;;;9.02;6.78;;;;;;;25.26;41.57;101020.13;5123318;28;20047;-64
2023/06/20 01:17:32;;;;;;;10.35;6.22;;;;;;;25.25;41.91;101024.03;5117291;28;20104;-65
2023/06/20 01:20:07;;;;;;;8.07;6.55;;;;;;;25.22;41.76;101022.72;5123449;28;20089;-65
2023/06/20 01:22:42;;;;;;;8.88;6.53;;;;;;;25.21;41.96;101023.84;5122891;28;20089;-64
2023/06/20 01:25:18;;;;;;;8.68;5.95;;;;;;;25.19;42.05;101026.09;5121789;28;20055;-65
2023/06/20 01:27:53;;;;;;;8.38;6.55;;;;;;;25.18;41.90;101016.22;5124736;28;20105;-66
2023/06/20 01:30:25;;;;;;;8.05;6.05;;;;;;;25.16;41.81;101014.91;5123563;28;20081;-64
2023/06/20 01:32:59;;;;;;;9.00;6.55;;;;;;;25.15;42.01;101013.28;5119495;28;20077;-65
2023/06/20 01:35:30;;;;;;;9.65;6.15;;;;;;;25.12;42.08;101005.66;5121153;28;20054;-66
2023/06/20 01:38:05;;;;;;;9.00;7.05;;;;;;;25.10;42.13;101005.97;5113685;28;20052;-64
2023/06/20 01:40:35;;;;;;;8.25;6.07;;;;;;;25.04;42.04;100999.00;5121892;28;20050;-65
2023/06/20 01:43:07;;;;;;;8.30;6.75;;;;;;;25.08;42.17;101005.47;5122434;28;20047;-65
2023/06/20 01:45:39;;;;;;;9.05;6.50;;;;;;;25.06;42.31;100995.94;5113074;28;20047;-65
2023/06/20 01:48:09;;;;;;;7.82;6.22;;;;;;;25.05;41.99;100994.31;5117412;28;20058;-66
2023/06/20 01:50:38;;;;;;;8.23;6.35;;;;;;;25.03;42.12;100989.13;5123164;28;20093;-64
2023/06/20 01:53:08;;;;;;;7.05;5.90;;;;;;;25.03;42.12;100989.13;5121996;28;20048;-65
2023/06/20 01:55:41;;;;;;;8.88;6.40;;;;;;;25.01;41.81;100991.38;5116221;28;20048;-65
2023/06/20 01:58:10;;;;;;;7.95;6.43;;;;;;;25.02;42.21;100989.44;5117020;28;20151;-65
2023/06/20 02:00:38;;;;;;;8.93;6.45;;;;;;;25.01;42.06;100999.63;5121076;28;20112;-65
2023/06/20 02:03:08;;;;;;;8.20;6.30;;;;;;;25.00;42.28;101000.75;5121868;28;20044;-64
2023/06/20 02:05:38;;;;;;;7.35;6.07;;;;;;;25.01;42.06;100998.81;5111722;28;20040;-64
2023/06/20 02:08:08;;;;;;;7.88;6.43;;;;;;;25.00;42.18;100994.44;5125247;28;20055;-65
2023/06/20 02:10:37;;;;;;;9.07;6.47;;;;;;;24.98;42.21;100989.25;5122113;28;20047;-65
2023/06/20 02:13:05;;;;;;;10.85;6.70;;;;;;;24.96;42.28;100996.97;5122697;28;20093;-66
2023/06/20 02:15:35;;;;;;;10.73;7.10;;;;;;;24.97;42.23;100995.88;5123011;28;20116;-64
2023/06/20 02:18:03;;;;;;;7.90;6.45;;;;;;;24.95;42.00;100995.34;5124212;28;20136;-65
2023/06/20 02:20:31;;;;;;;8.35;6.50;;;;;;;24.95;42.04;100992.59;5123434;28;20055;-65
2023/06/20 02:23:00;;;;;;;7.70;6.35;;;;;;;24.95;42.00;100987.09;5117806;28;20043;-65
2023/06/20 02:25:34;;;;;;;8.68;6.70;;;;;;;24.94;42.41;100990.97;5119375;28;20069;-65
2023/06/20 02:28:04;;;;;;;9.15;6.35;;;;;;;24.92;42.41;100994.03;5120966;28;20378;-65
2023/06/20 02:30:34;;;;;;;6.85;6.13;;;;;;;24.92;42.13;100995.97;5123965;28;20514;-65
2023/06/20 02:33:05;;;;;;;7.97;6.35;;;;;;;24.91;42.38;101008.09;5120368;28;20044;-64
2023/06/20 02:35:36;;;;;;;7.63;6.13;;;;;;;24.90;42.47;101004.53;5119743;28;20051;-64
2023/06/20 02:38:05;;;;;;;7.32;5.85;;;;;;;24.86;42.11;100989.78;5111266;28;20070;-64
2023/06/20 02:40:36;;;;;;;8.38;6.32;;;;;;;24.87;42.45;100998.84;5117969;28;20051;-65
2023/06/20 02:43:06;;;;;;;9.15;6.28;;;;;;;24.85;42.17;100999.16;5116901;28;20051;-65
2023/06/20 02:45:33;;;;;;;7.68;6.22;;;;;;;24.85;42.27;100987.38;5118382;28;20044;-64
2023/06/20 02:48:16;;;;;;;8.05;6.15;;;;;;;24.83;42.48;100990.44;5122425;28;20374;-64
2023/06/20 02:50:54;;;;;;;9.48;6.88;;;;;;;24.81;42.57;100984.44;5122794;28;20051;-65
2023/06/20 02:53:28;;;;;;;10.27;6.68;;;;;;;24.80;42.22;100987.50;5120926;28;20040;-64
2023/06/20 02:56:02;;;;;;;9.45;6.90;;;;;;;24.78;42.34;100984.25;5112175;28;20058;-65
2023/06/20 02:58:31;;;;;;;12.38;6.60;;;;;;;24.77;42.60;100982.63;5124663;28;20313;-64
2023/06/20 03:01:01;;;;;;;8.43;6.38;;;;;;;24.76;42.25;100989.25;5123881;28;20057;-66
2023/06/20 03:03:34;;;;;;;8.38;6.18;;;;;;;24.73;42.24;100979.69;5117515;28;20048;-65
2023/06/20 03:06:06;;;;;;;8.20;6.22;;;;;;;24.72;42.55;100980.81;5123347;28;20044;-65
2023/06/20 03:08:35;;;;;;;8.88;6.35;;;;;;;24.70;42.21;100979.50;5119182;28;20085;-65
2023/06/20 03:11:04;;;;;;;10.40;7.32;;;;;;;24.70;42.58;100982.25;5123058;28;20048;-66
2023/06/20 03:13:32;;;;;;;8.68;6.95;;;;;;;24.67;42.77;100976.25;5121969;28;20047;-64
2023/06/20 03:16:00;;;;;;;9.02;6.53;;;;;;;24.65;42.69;100973.00;5117580;28;20051;-64
2023/06/20 03:18:29;;;;;;;8.82;6.65;;;;;;;24.65;42.59;100972.19;5123426;28;20327;-65
2023/06/20 03:20:57;;;;;;;8.18;6.50;;;;;;;24.63;42.46;100966.19;5123342;28;20047;-65
2023/06/20 03:23:25;;;;;;;7.53;6.32;;;;;;;24.61;42.56;100974.75;5124620;28;20048;-65
2023/06/20 03:25:53;;;;;;;7.57;6.18;;;;;;;24.61;42.50;100985.75;5118963;28;20104;-64
2023/06/20 03:28:22;;;;;;;9.05;6.72;;;;;;;24.59;42.53;100992.69;5124224;28;20048;-64
2023/06/20 03:30:50;;;;;;;8.77;6.70;;;;;;;24.57;42.75;100979.25;5123091;28;20053;-65
2023/06/20 03:33:18;;;;;;;8.55;6.40;;;;;;;24.55;42.47;100984.25;5120315;28;20054;-64
2023/06/20 03:35:45;;;;;;;11.65;6.95;;;;;;;24.53;42.41;100992.00;5121003;28;20052;-64
2023/06/20 03:38:13;;;;;;;8.23;6.10;;;;;;;24.54;42.83;100998.31;5113779;28;20104;-65
2023/06/20 03:40:41;;;;;;;7.72;6.25;;;;;;;24.53;42.97;101004.94;5115283;28;20070;-64
2023/06/20 03:43:09;;;;;;;9.20;7.10;;;;;;;24.51;42.84;101010.72;5119304;28;20047;-65
2023/06/20 03:45:38;;;;;;;7.22;5.72;;;;;;;24.50;42.77;101020.09;5118817;28;20052;-65
2023/06/20 03:48:06;;;;;;;11.00;7.85;;;;;;;24.50;42.80;101024.78;5121485;28;20051;-66
2023/06/20 03:50:34;;;;;;;9.10;6.75;;;;;;;24.50;42.71;101024.78;5122538;28;20059;-64
2023/06/20 03:53:01;;;;;;;10.00;7.38;;;;;;;24.49;43.02;101026.72;5115077;28;20073;-65
2023/06/20 03:55:29;;;;;;;10.05;7.30;;;;;;;24.47;42.90;101026.22;5123616;28;20047;-65
2023/06/20 03:57:57;;;;;;;9.35;7.43;;;;;;;24.48;42.83;101030.59;5122110;28;20073;-64
2023/06/20 04:00:26;;;;;;;7.40;6.53;;;;;;;24.47;42.83;101031.72;5122059;28;20052;-65
2023/06/20 04:02:55;;;;;;;9.57;7.05;;;;;;;24.47;43.06;101028.16;5123645;28;20055;-66
2023/06/20 04:05:23;;;;;;;9.75;7.30;;;;;;;24.45;43.15;101030.41;5123286;28;20047;-65
2023/06/20 04:07:51;;;;;;;11.30;7.18;;;;;;;24.45;43.02;101035.88;5118339;28;20075;-66
2023/06/20 04:10:19;;;;;;;8.68;6.57;;;;;;;24.43;42.69;101025.22;5108580;28;20117;-65
2023/06/20 04:12:47;;;;;;;9.00;7.18;;;;;;;24.43;42.99;101027.16;5117216;28;20043;-65
2023/06/20 04:15:14;;;;;;;9.20;7.45;;;;;;;24.41;42.76;101019.22;5118898;28;20346;-64
2023/06/20 04:17:42;;;;;;;10.90;7.63;;;;;;;24.40;43.20;101012.09;5115962;28;20044;-65
2023/06/20 04:20:12;;;;;;;8.82;7.40;;;;;;;24.40;43.03;101003.03;5118156;28;20056;-64
2023/06/20 04:22:42;;;;;;;12.55;7.82;;;;;;;24.39;42.88;101004.97;5118915;28;20075;-64
2023/06/20 04:25:10;;;;;;;8.40;6.93;;;;;;;24.38;43.15;101006.09;5123719;28;20101;-64
2023/06/20 04:27:38;;;;;;;7.90;6.55;;;;;;;24.35;42.83;100990.22;5122887;28;20088;-66
2023/06/20 04:30:07;;;;;;;12.18;7.35;;;;;;;24.34;43.39;100983.94;5124606;28;20048;-64
2023/06/20 04:32:36;;;;;;;9.57;7.18;;;;;;;24.34;43.30;100985.88;5122288;28;20044;-64
2023/06/20 04:35:05;;;;;;;11.20;7.70;;;;;;;24.34;43.52;101000.41;5127608;28;20044;-65
2023/06/20 04:37:34;;;;;;;10.88;6.97;;;;;;;24.32;43.27;100994.41;5123517;28;20044;-66
2023/06/20 04:40:02;;;;;;;8.57;6.95;;;;;;;24.30;43.46;100999.41;5126094;28;20097;-65
2023/06/20 04:42:30;;;;;;;8.82;7.00;;;;;;;24.28;43.67;101001.66;5126690;28;20048;-65
2023/06/20 04:44:58;;;;;;;10.82;7.32;;;;;;;24.27;43.78;100993.72;5122112;28;20050;-65
2023/06/20 04:47:26;;;;;;;8.57;7.30;;;;;;;24.26;43.40;100997.63;5123563;28;20048;-64
2023/06/20 04:49:54;;;;;;;9.52;6.60;;;;;;;24.25;43.89;100985.78;5121195;28;20044;-64
2023/06/20 04:52:21;;;;;;;8.52;7.40;;;;;;;24.26;43.54;100989.38;5119204;28;20104;-70
2023/06/20 04:54:50;;;;;;;9.73;7.47;;;;;;;24.26;43.54;100992.13;5124642;28;20067;-70
2023/06/20 04:57:18;;;;;;;7.93;6.80;;;;;;;24.27;42.94;100988.22;5123678;28;20040;-67
2023/06/20 04:59:49;;;;;;;11.02;7.00;;;;;;;24.27;43.00;100985.47;5125787;28;20043;-65
2023/06/20 05:02:17;;;;;;;8.82;7.07;;;;;;;24.27;43.17;100983.53;5119527;28;20055;-64
2023/06/20 05:04:45;;;;;;;8.35;6.68;;;;;;;24.26;43.09;100981.94;5122631;28;20044;-67
2023/06/20 05:07:13;;;;;;;7.88;7.00;;;;;;;24.27;43.48;100978.06;5122899;28;20120;-68
2023/06/20 05:09:40;;;;;;;8.85;6.88;;;;;;;24.25;43.39;100974.81;5124809;28;20051;-66
2023/06/20 05:12:10;;;;;;;8.05;6.82;;;;;;;24.24;43.46;100975.13;5122527;28;20055;-67
2023/06/20 05:14:38;;;;;;;6.93;6.18;;;;;;;24.23;43.31;100962.50;5127106;28;20085;-67
2023/06/20 05:17:06;;;;;;;8.07;6.40;;;;;;;24.23;43.31;100955.06;5124949;28;20043;-65
2023/06/20 05:19:34;;;;;;;8.15;6.65;;;;;;;24.23;43.79;100957.00;5123560;28;20048;-65
2023/06/20 05:22:01;;;;;;;7.38;6.15;;;;;;;24.23;43.54;100955.06;5127121;28;20048;-63
2023/06/20 05:24:29;;;;;;;8.00;6.22;;;;;;;24.24;43.95;100953.94;5122829;28;20043;-63
2023/06/20 05:26:57;;;;;;;7.55;6.15;;;;;;;24.24;44.07;100950.41;4767942;28;9999950;-63
2023/06/20 05:29:26;;;;;;;8.80;5.80;;;;;;;24.25;43.55;100952.81;5123531;28;20400;-64
2023/06/20 05:31:54;;;;;;;8.23;5.70;;;;;;;24.26;44.02;100949.00;5118575;28;20047;-64
2023/06/20 05:34:22;;;;;;;7.75;6.43;;;;;;;24.30;43.92;100957.41;5122449;28;20052;-65
2023/06/20 05:36:50;;;;;;;12.40;6.15;;;;;;;24.32;44.02;100955.97;5118507;28;20055;-65
2023/06/20 05:39:18;;;;;;;8.82;6.22;;;;;;;24.36;43.93;100950.66;5115115;28;20413;-65
2023/06/20 05:41:47;;;;;;;11.52;5.63;;;;;;;24.40;44.67;100950.84;5118133;28;20058;-67
2023/06/20 05:44:14;;;;;;;8.23;6.35;;;;;;;24.42;45.14;100951.34;5110793;28;20062;-66
2023/06/20 05:46:43;;;;;;;8.68;5.50;;;;;;;24.47;45.76;100946.53;5108645;28;20112;-68
2023/06/20 05:49:14;;;;;;;7.28;5.10;;;;;;;24.50;45.39;100950.59;5113960;28;20537;-67
2023/06/20 05:51:44;;;;;;;7.90;5.78;;;;;;;24.52;45.29;100953.84;5107875;28;20059;-65
2023/06/20 05:54:12;;;;;;;6.43;5.10;;;;;;;24.53;45.23;100950.78;5108164;28;20048;-65
2023/06/20 05:56:40;;;;;;;9.90;5.30;;;;;;;24.54;44.96;100955.16;5113326;28;20100;-65
2023/06/20 05:59:08;;;;;;;8.68;5.03;;;;;;;24.56;45.08;100963.09;5104556;28;20069;-65
2023/06/20 06:01:35;;;;;;;11.60;5.10;;;;;;;24.57;45.18;100954.53;5106689;28;20094;-66
2023/06/20 06:04:05;;;;;;;6.75;5.22;;;;;;;24.60;45.05;100964.06;5115959;28;20054;-65
2023/06/20 06:06:33;;;;;;;9.02;4.72;;;;;;;24.60;45.07;100967.63;5102903;28;20113;-65
2023/06/20 06:09:00;;;;;;;8.05;5.07;;;;;;;24.63;45.20;100980.75;5114937;28;20043;-66
2023/06/20 06:11:28;;;;;;;7.43;4.68;;;;;;;24.65;45.52;100975.75;5110702;28;20052;-65
2023/06/20 06:13:56;;;;;;;5.97;4.82;;;;;;;24.67;46.21;100976.25;5117753;28;20047;-64
2023/06/20 06:16:24;;;;;;;6.85;4.78;;;;;;;24.70;45.77;100985.00;5122405;28;20047;-64
2023/06/20 06:18:54;;;;;;;7.43;4.53;;;;;;;24.72;45.82;100977.25;5114136;28;20055;-64
2023/06/20 06:21:23;;;;;;;9.38;4.85;;;;;;;24.74;46.09;100969.50;5125384;28;20052;-64
2023/06/20 06:23:51;;;;;;;7.38;5.00;;;;;;;24.76;45.97;100961.75;5122178;28;20069;-63
2023/06/20 06:26:19;;;;;;;5.53;4.30;;;;;;;24.77;45.95;100955.94;5120121;28;20051;-64
2023/06/20 06:28:47;;;;;;;6.80;4.70;;;;;;;24.80;46.06;100955.31;5114984;28;20055;-63
2023/06/20 06:31:18;;;;;;;5.50;4.38;;;;;;;24.81;45.82;100953.38;5122577;28;20059;-64
2023/06/20 06:33:46;;;;;;;6.13;4.13;;;;;;;24.84;45.72;100952.75;5124946;28;20056;-64
2023/06/20 06:36:15;;;;;;;8.18;4.50;;;;;;;24.86;46.19;100973.31;5115404;28;20112;-64
2023/06/20 06:38:48;;;;;;;6.22;3.90;;;;;;;24.88;46.15;100965.56;5118323;28;20058;-65
2023/06/20 06:41:17;;;;;;;5.63;4.05;;;;;;;24.92;45.96;100973.97;5123022;28;20079;-64
2023/06/20 06:43:45;;;;;;;5.85;4.28;;;;;;;24.93;46.14;100972.84;5113920;28;20094;-64
2023/06/20 06:46:13;;;;;;;5.35;3.85;;;;;;;24.95;45.94;100965.91;5117164;28;20096;-64
2023/06/20 06:48:41;;;;;;;7.68;4.20;;;;;;;24.97;46.09;100960.13;5112757;28;20059;-64
2023/06/20 06:51:09;;;;;;;5.70;4.10;;;;;;;24.97;46.19;100958.19;5114705;28;20048;-64
2023/06/20 06:53:36;;;;;;;5.93;4.45;;;;;;;25.01;46.29;100972.13;5117874;28;20047;-64
2023/06/20 06:56:06;;;;;;;6.18;3.90;;;;;;;25.03;46.83;100963.56;5117771;28;20047;-65
2023/06/20 06:58:34;;;;;;;5.35;3.83;;;;;;;25.04;46.61;100965.19;5123200;28;20043;-64
2023/06/20 07:01:02;;;;;;;8.18;4.15;;;;;;;25.06;46.84;100965.66;5113702;28;20060;-65
2023/06/20 07:03:31;;;;;;;8.65;3.90;;;;;;;25.06;46.91;100963.72;5122456;28;20076;-65
2023/06/20 07:05:59;;;;;;;5.72;3.72;;;;;;;25.08;46.67;100958.72;5115147;28;20136;-63
2023/06/20 07:08:27;;;;;;;5.20;3.58;;;;;;;25.09;46.76;100957.59;5120325;28;20048;-63
2023/06/20 07:10:54;;;;;;;5.78;4.20;;;;;;;25.10;46.51;100956.47;5117147;28;20120;-63
2023/06/20 07:13:24;;;;;;;7.82;3.70;;;;;;;25.12;46.47;100953.41;5124729;28;20069;-64
2023/06/20 07:15:52;;;;;;;6.05;3.33;;;;;;;25.13;46.57;100953.09;5118603;28;20598;-64
2023/06/20 07:18:20;;;;;;;5.80;3.53;;;;;;;25.14;46.83;100948.41;5113017;28;20044;-62
2023/06/20 07:20:48;;;;;;;5.35;3.28;;;;;;;25.16;46.69;100948.91;5113907;28;20059;-64
2023/06/20 07:23:15;;;;;;;7.72;4.05;;;;;;;25.16;46.97;100952.47;5118884;28;20043;-63
2023/06/20 07:25:43;;;;;;;4.40;3.50;;;;;;;25.17;46.90;100951.31;5115894;28;20043;-65
2023/06/20 07:28:11;;;;;;;4.18;3.28;;;;;;;25.18;46.91;100952.94;5116412;28;20121;-64
2023/06/20 07:30:41;;;;;;;5.32;3.65;;;;;;;25.19;47.05;100943.56;5119217;28;20084;-64
2023/06/20 07:33:10;;;;;;;4.22;3.53;;;;;;;25.20;47.25;100936.94;5119813;28;20090;-63
2023/06/20 07:35:38;;;;;;;5.00;3.53;;;;;;;25.21;47.07;100932.25;5122006;28;20081;-63
2023/06/20 07:38:06;;;;;;;4.50;3.53;;;;;;;25.23;47.65;100944.56;5121266;28;20133;-65
2023/06/20 07:40:33;;;;;;;5.82;3.30;;;;;;;25.25;47.46;100934.03;5121921;28;20063;-63
2023/06/20 07:43:01;;;;;;;7.22;4.15;;;;;;;25.28;47.62;100940.84;5120620;28;20059;-63
2023/06/20 07:45:29;;;;;;;4.80;3.38;;;;;;;25.27;47.42;100940.03;5121978;28;20048;-63
2023/06/20 07:47:58;;;;;;;4.78;3.30;;;;;;;25.30;47.65;100949.59;5120926;28;20073;-62
2023/06/20 07:50:26;;;;;;;5.18;3.33;;;;;;;25.32;47.92;100947.34;5116910;28;20048;-62
2023/06/20 07:52:54;;;;;;;7.25;3.28;;;;;;;25.35;47.54;100948.66;5117522;28;20052;-63
2023/06/20 07:55:22;;;;;;;4.10;3.10;;;;;;;25.37;47.87;100949.13;5122872;28;20039;-63
2023/06/20 07:57:57;;;;;;;4.78;3.38;;;;;;;25.37;47.84;100949.94;5118301;28;20073;-64
2023/06/20 08:00:27;;;;;;;4.68;2.67;;;;;;;25.38;47.85;100951.56;5118716;28;20052;-63
2023/06/20 08:02:55;;;;;;;5.32;3.50;;;;;;;25.41;47.90;100952.88;5121597;28;20043;-64
2023/06/20 08:05:24;;;;;;;4.55;3.38;;;;;;;25.43;48.27;100945.91;5124718;28;20047;-63
2023/06/20 08:07:53;;;;;;;4.25;3.17;;;;;;;25.45;48.12;100937.34;5115714;28;20036;-63
2023/06/20 08:10:20;;;;;;;5.70;3.60;;;;;;;25.45;47.97;100935.41;5124746;28;20047;-63
2023/06/20 08:12:48;;;;;;;4.22;2.60;;;;;;;25.47;48.26;100938.66;5117078;28;20051;-63
2023/06/20 08:15:16;;;;;;;3.78;2.88;;;;;;;25.50;48.36;100942.69;5123609;28;20657;-65
2023/06/20 08:17:44;;;;;;;5.05;2.92;;;;;;;25.53;48.17;100936.56;5121016;28;20050;-64
2023/06/20 08:20:12;;;;;;;3.63;2.80;;;;;;;25.53;48.20;100945.63;5121643;28;20052;-64
2023/06/20 08:22:41;;;;;;;5.63;2.85;;;;;;;25.55;48.38;100940.63;5124939;28;20124;-63
2023/06/20 08:25:09;;;;;;;3.15;2.85;;;;;;;25.57;48.15;100938.34;5123217;28;20044;-64
2023/06/20 08:27:37;;;;;;;3.30;2.65;;;;;;;25.60;48.28;100942.41;5123709;28;20084;-63
2023/06/20 08:30:06;;;;;;;5.43;3.03;;;;;;;25.62;48.18;100940.94;5121095;28;20059;-64
2023/06/20 08:32:36;;;;;;;5.90;3.28;;;;;;;25.64;48.48;100935.13;5119365;28;20059;-64
2023/06/20 08:35:06;;;;;;;3.80;2.90;;;;;;;25.66;48.50;100937.59;5125704;28;20120;-64
2023/06/20 08:37:33;;;;;;;4.45;2.78;;;;;;;25.68;48.45;100938.88;5116618;28;20477;-64
2023/06/20 08:40:05;;;;;;;4.10;2.55;;;;;;;25.69;48.18;100936.94;5125496;28;20112;-64
2023/06/20 08:42:33;;;;;;;3.97;2.80;;;;;;;25.71;48.38;100935.50;5123761;28;20518;-63
2023/06/20 08:45:01;;;;;;;3.63;2.40;;;;;;;25.73;48.63;100938.75;5124986;28;20056;-64
2023/06/20 08:47:29;;;;;;;3.72;2.92;;;;;;;25.75;48.67;100936.47;5120266;28;20044;-63
2023/06/20 08:49:57;;;;;;;4.53;3.17;;;;;;;25.77;48.40;100936.97;5120513;28;20535;-64
2023/06/20 08:52:28;;;;;;;4.53;2.72;;;;;;;25.80;48.65;100933.56;5123173;28;20065;-64
2023/06/20 08:54:57;;;;;;;4.07;2.78;;;;;;;25.84;48.64;100930.97;5126054;28;20055;-64
2023/06/20 08:57:27;;;;;;;3.88;2.80;;;;;;;25.86;48.56;100926.78;5121363;28;20505;-65
2023/06/20 08:59:56;;;;;;;4.97;2.63;;;;;;;25.85;48.40;100916.88;5125357;28;20051;-63
2023/06/20 09:02:24;;;;;;;5.38;3.92;;;;;;;25.90;48.47;100921.44;5116396;28;20104;-63
2023/06/20 09:05:02;;;;;;;2.83;2.40;;;;;;;25.91;48.38;100925.81;5116778;28;20043;-65
2023/06/20 09:07:36;;;;;;;7.90;3.03;;;;;;;25.91;48.23;100915.59;5119654;28;20097;-63
2023/06/20 09:10:05;;;;;;;3.88;2.78;;;;;;;25.94;48.88;100922.41;5118804;28;20048;-63
2023/06/20 09:12:47;;;;;;;3.42;2.47;;;;;;;25.99;48.53;100935.19;5114847;28;20039;-65
2023/06/20 09:15:15;;;;;;;4.03;2.58;;;;;;;25.99;48.52;100930.50;5121720;28;20092;-64
2023/06/20 09:17:44;;;;;;;5.68;2.90;;;;;;;26.02;48.32;100934.53;5121898;28;20389;-64
2023/06/20 09:20:14;;;;;;;3.35;2.65;;;;;;;26.02;48.38;100937.28;5119487;28;20063;-65
2023/06/20 09:22:43;;;;;;;5.93;2.50;;;;;;;26.04;48.27;100935.00;5115589;28;20097;-65
2023/06/20 09:25:12;;;;;;;5.10;2.53;;;;;;;26.07;48.58;100943.44;5122845;28;20056;-64
2023/06/20 09:27:41;;;;;;;3.72;2.63;;;;;;;26.10;48.41;100950.25;5118005;28;20056;-65
2023/06/20 09:30:11;;;;;;;7.28;3.10;;;;;;;26.13;48.71;100935.81;5126253;28;20047;-64
2023/06/20 09:32:41;;;;;;;3.03;2.33;;;;;;;26.13;48.22;100933.88;5117890;28;20046;-65
2023/06/20 09:35:11;;;;;;;3.80;2.65;;;;;;;26.14;48.48;100935.50;5114211;28;20040;-64
2023/06/20 09:37:40;;;;;;;4.47;2.63;;;;;;;26.18;48.55;100941.19;5114038;28;20118;-66
2023/06/20 09:40:10;;;;;;;4.28;2.70;;;;;;;26.20;48.24;100944.41;5123245;28;20051;-64
2023/06/20 09:42:39;;;;;;;3.33;2.42;;;;;;;26.23;48.24;100933.56;5116847;28;20058;-65
2023/06/20 09:45:08;;;;;;;3.05;2.28;;;;;;;26.26;48.34;100934.84;5122400;28;20374;-65
2023/06/20 09:47:41;;;;;;;2.88;2.15;;;;;;;26.31;48.53;100936.63;5120965;28;20047;-65
2023/06/20 09:50:13;;;;;;;5.35;2.70;;;;;;;26.32;48.43;100930.00;5123729;28;20070;-65
2023/06/20 09:52:44;;;;;;;3.90;2.53;;;;;;;26.37;48.32;100940.88;5117071;28;20066;-64
2023/06/20 09:55:14;;;;;;;3.45;2.65;;;;;;;26.39;48.27;100942.16;5124717;28;20621;-65
2023/06/20 09:57:43;;;;;;;2.50;2.20;;;;;;;26.42;48.31;100933.25;5123126;28;20043;-64
2023/06/20 10:00:15;;;;;;;3.35;2.47;;;;;;;26.45;48.07;100938.09;5125404;28;20085;-65
2023/06/20 10:02:46;;;;;;;3.67;2.38;;;;;;;26.47;48.27;100935.84;5117853;28;20061;-65
2023/06/20 10:05:15;;;;;;;3.50;2.50;;;;;;;26.50;47.99;100935.19;5117834;28;20066;-65
2023/06/20 10:07:45;;;;;;;3.78;2.63;;;;;;;26.53;48.10;100933.72;5120938;28;20039;-65
2023/06/20 10:10:14;;;;;;;5.32;2.40;;;;;;;26.56;47.97;100931.13;5122936;28;20052;-61
2023/06/20 10:12:45;;;;;;;2.15;1.90;;;;;;;26.59;47.90;100921.38;5122258;28;20111;-64
2023/06/20 10:15:14;;;;;;;4.65;2.60;;;;;;;26.63;48.11;100921.53;5122111;28;20081;-65
2023/06/20 10:17:46;;;;;;;3.08;2.10;;;;;;;26.66;48.24;100918.13;5111976;28;20060;-65
2023/06/20 10:20:28;;;;;;;5.40;2.20;;;;;;;26.71;48.34;100910.47;5123323;28;20107;-65
2023/06/20 10:22:58;;;;;;;4.60;2.50;;;;;;;26.74;47.87;100896.03;5120820;28;20077;-65
2023/06/20 10:25:28;;;;;;;2.97;2.40;;;;;;;26.80;48.35;100891.16;5117049;28;20055;-64
2023/06/20 10:27:57;;;;;;;3.03;2.20;;;;;;;26.84;48.29;100887.41;5119384;28;20039;-64
2023/06/20 10:30:56;;;;;;;3.00;2.35;;;;;;;26.88;47.66;100887.56;5121923;28;20047;-64
2023/06/20 10:33:27;;;;;;;3.33;2.10;;;;;;;26.87;47.55;100872.97;5119577;28;20047;-65
2023/06/20 10:35:57;;;;;;;3.10;2.13;;;;;;;26.88;47.42;100866.31;5121082;28;20088;-63
2023/06/20 10:38:25;;;;;;;3.00;2.30;;;;;;;26.91;47.69;100871.16;5122727;28;20101;-65
2023/06/20 10:41:12;;;;;;;5.03;2.72;;;;;;;26.98;47.72;100867.91;5116601;28;20043;-63
2023/06/20 10:43:53;;;;;;;4.25;2.95;;;;;;;27.05;47.60;100876.47;5122720;28;20047;-65
2023/06/20 10:46:23;;;;;;;3.42;2.35;;;;;;;27.10;47.31;100878.25;5116040;28;20088;-65
2023/06/20 10:48:52;;;;;;;2.92;2.15;;;;;;;27.12;47.53;100874.00;5123700;28;20044;-65
2023/06/20 10:51:20;;;;;;;2.97;1.90;;;;;;;27.20;47.21;100886.16;5119987;28;20047;-65
2023/06/20 10:53:48;;;;;;;2.78;2.00;;;;;;;27.24;47.47;100876.06;5121449;28;20059;-65
2023/06/20 10:56:26;;;;;;;2.25;1.90;;;;;;;27.29;46.76;100875.06;5121066;28;20522;-64
2023/06/20 10:58:54;;;;;;;3.72;2.05;;;;;;;27.34;46.55;100864.63;5123756;28;20058;-64
2023/06/20 11:01:27;;;;;;;3.30;2.05;;;;;;;27.39;47.13;100863.63;5118368;28;21285;-65
2023/06/20 11:03:57;;;;;;;2.30;1.88;;;;;;;27.44;46.46;100855.97;5121692;28;20062;-62
2023/06/20 11:06:24;;;;;;;3.03;2.40;;;;;;;27.49;46.54;100846.69;5121558;28;20055;-63
2023/06/20 11:08:52;;;;;;;2.67;2.08;;;;;;;27.55;46.28;100848.91;5123738;28;20156;-62
2023/06/20 11:11:31;;;;;;;2.38;1.95;;;;;;;27.62;46.43;100848.41;5118976;28;20112;-64
2023/06/20 11:14:09;;;;;;;4.82;2.00;;;;;;;27.67;46.29;100847.38;5122067;28;20047;-64
2023/06/20 11:16:38;;;;;;;2.10;1.90;;;;;;;27.67;45.74;100845.44;5117957;28;20468;-65
2023/06/20 11:19:07;;;;;;;2.10;1.70;;;;;;;27.70;45.93;100838.44;5118092;28;20350;-65
2023/06/20 11:21:52;;;;;;;2.97;2.22;;;;;;;27.72;46.11;100833.38;5110463;28;20134;-64
2023/06/20 11:24:21;;;;;;;2.67;1.85;;;;;;;27.74;45.58;100825.53;5120118;28;20062;-65
2023/06/20 11:26:49;;;;;;;2.83;2.00;;;;;;;27.81;46.28;100825.78;5115110;28;20077;-65
2023/06/20 11:29:17;;;;;;;3.08;1.88;;;;;;;27.87;46.07;100828.00;5119048;28;20043;-64
2023/06/20 11:31:45;;;;;;;2.38;1.77;;;;;;;27.95;46.04;100828.25;5116301;28;20048;-64
2023/06/20 11:34:15;;;;;;;3.80;2.00;;;;;;;28.02;45.55;100829.34;5115698;28;20048;-64